PWSweather.com
Personal Weather Stations
Station Observations
PENICUIKWS
PenicuikGB

PenicuikGB

Lat: 55.830932, Lon: -3.224533000000065

Elevation: 166

Station Type: Fine Offset

http://weather.penicuik.org

High Low Average
Temperature 43.9°F6.6°C 22.5°F-5.3°C 27.2°F-2.7°C
Dew Point 31.5°F-0.3°C 18.4°F-7.6°C 21.8°F-5.7°C
Winds 2.5 mph 4.0 kmh Calm Calm Calm SCalm S
Wind Gusts 4.5 mph7.2 kmh -- 1.0 mph1.6 kmh
Humidity 87% 58% 80%
Pressure 30.54 in1034.2 mb 30.43 in1030.5 mb -
Precipitation 0.00 in0.0 mm - -
Hour Temp Dew Point Humidity Winds Wind Gusts Pressure Precip Precip Rate Daily Precip Total
12:00 AM 29.3°F-1.5°C 24.5°F-4.2°C 82% 0.2 mph SW0.3 kmh SW 0.7 mph1.1 kmh 30.43 in1030.5 mb 0.00 in0.0 mm 0.00 in0.0 mm 0.00 in0.0 mm
12:30 AM 28.6°F-1.9°C 24.1°F-4.4°C 83% 0.1 mph SW0.2 kmh SW 0.7 mph1.1 kmh 30.43 in1030.5 mb 0.00 in0.0 mm 0.00 in0.0 mm 0.00 in0.0 mm
01:00 AM 28.0°F-2.2°C 22.4°F-5.3°C 79% 0.1 mph SW0.2 kmh SW 0.7 mph1.1 kmh 30.44 in1030.8 mb 0.00 in0.0 mm 0.00 in0.0 mm 0.00 in0.0 mm
01:15 AM 27.7°F-2.4°C 22.3°F-5.4°C 80% Calm Calm 0.7 mph1.1 kmh 30.44 in1030.8 mb 0.00 in0.0 mm 0.00 in0.0 mm 0.00 in0.0 mm
01:30 AM 27.5°F-2.5°C 22.2°F-5.4°C 80% 0.1 mph SW0.2 kmh SW 0.7 mph1.1 kmh 30.43 in1030.5 mb 0.00 in0.0 mm 0.00 in0.0 mm 0.00 in0.0 mm
01:45 AM 27.3°F-2.6°C 22.0°F-5.6°C 80% 0.1 mph SE0.2 kmh SE 0.7 mph1.1 kmh 30.44 in1030.8 mb 0.00 in0.0 mm 0.00 in0.0 mm 0.00 in0.0 mm
02:00 AM 27.1°F-2.7°C 21.8°F-5.7°C 80% 0.5 mph SW0.8 kmh SW 1.6 mph2.6 kmh 30.45 in1031.2 mb 0.00 in0.0 mm 0.00 in0.0 mm 0.00 in0.0 mm
02:30 AM 26.6°F-3.0°C 21.6°F-5.8°C 81% 0.2 mph S0.3 kmh S 0.7 mph1.1 kmh 30.45 in1031.2 mb 0.00 in0.0 mm 0.00 in0.0 mm 0.00 in0.0 mm
02:45 AM 26.2°F-3.2°C 21.5°F-5.8°C 82% 0.1 mph S0.2 kmh S 0.7 mph1.1 kmh 30.45 in1031.2 mb 0.00 in0.0 mm 0.00 in0.0 mm 0.00 in0.0 mm
03:00 AM 25.7°F-3.5°C 21.0°F-6.1°C 82% 0.2 mph S0.3 kmh S 0.7 mph1.1 kmh 30.45 in1031.2 mb 0.00 in0.0 mm 0.00 in0.0 mm 0.00 in0.0 mm
03:15 AM 25.3°F-3.7°C 20.6°F-6.3°C 82% Calm Calm -- 30.45 in1031.2 mb 0.00 in0.0 mm 0.00 in0.0 mm 0.00 in0.0 mm
03:30 AM 25.3°F-3.7°C 20.6°F-6.3°C 82% 0.6 mph S1.0 kmh S 1.6 mph2.6 kmh 30.45 in1031.2 mb 0.00 in0.0 mm 0.00 in0.0 mm 0.00 in0.0 mm
03:45 AM 24.8°F-4.0°C 20.1°F-6.6°C 82% Calm Calm -- 30.45 in1031.2 mb 0.00 in0.0 mm 0.00 in0.0 mm 0.00 in0.0 mm
04:00 AM 24.4°F-4.2°C 20.1°F-6.6°C 83% 0.2 mph WSW0.3 kmh WSW 0.7 mph1.1 kmh 30.46 in1031.5 mb 0.00 in0.0 mm 0.00 in0.0 mm 0.00 in0.0 mm
04:15 AM 24.4°F-4.2°C 20.1°F-6.6°C 83% 0.2 mph SW0.3 kmh SW 0.7 mph1.1 kmh 30.46 in1031.5 mb 0.00 in0.0 mm 0.00 in0.0 mm 0.00 in0.0 mm
04:30 AM 24.3°F-4.3°C 19.9°F-6.7°C 83% Calm Calm -- 30.46 in1031.5 mb 0.00 in0.0 mm 0.00 in0.0 mm 0.00 in0.0 mm
04:45 AM 23.9°F-4.5°C 19.5°F-6.9°C 83% Calm Calm -- 30.47 in1031.8 mb 0.00 in0.0 mm 0.00 in0.0 mm 0.00 in0.0 mm
05:15 AM 23.7°F-4.6°C 19.3°F-7.1°C 83% 0.1 mph SE0.2 kmh SE 0.7 mph1.1 kmh 30.47 in1031.8 mb 0.00 in0.0 mm 0.00 in0.0 mm 0.00 in0.0 mm
05:30 AM 23.5°F-4.7°C 19.2°F-7.1°C 83% 0.4 mph E0.6 kmh E 1.6 mph2.6 kmh 30.48 in1032.2 mb 0.00 in0.0 mm 0.00 in0.0 mm 0.00 in0.0 mm
05:45 AM 23.5°F-4.7°C 19.2°F-7.1°C 83% 0.4 mph S0.6 kmh S 1.6 mph2.6 kmh 30.48 in1032.2 mb 0.00 in0.0 mm 0.00 in0.0 mm 0.00 in0.0 mm
06:00 AM 23.4°F-4.8°C 19.0°F-7.2°C 83% 0.1 mph SW0.2 kmh SW 0.7 mph1.1 kmh 30.48 in1032.2 mb 0.00 in0.0 mm 0.00 in0.0 mm 0.00 in0.0 mm
06:15 AM 23.2°F-4.9°C 18.8°F-7.3°C 83% Calm Calm -- 30.49 in1032.5 mb 0.00 in0.0 mm 0.00 in0.0 mm 0.00 in0.0 mm
06:45 AM 23.2°F-4.9°C 18.8°F-7.3°C 83% 0.1 mph SW0.2 kmh SW 0.7 mph1.1 kmh 30.50 in1032.8 mb 0.00 in0.0 mm 0.00 in0.0 mm 0.00 in0.0 mm
07:00 AM 23.4°F-4.8°C 19.0°F-7.2°C 83% 0.2 mph SE0.3 kmh SE 0.7 mph1.1 kmh 30.50 in1032.8 mb 0.00 in0.0 mm 0.00 in0.0 mm 0.00 in0.0 mm
07:15 AM 23.2°F-4.9°C 18.8°F-7.3°C 83% 0.4 mph S0.6 kmh S 1.6 mph2.6 kmh 30.50 in1032.8 mb 0.00 in0.0 mm 0.00 in0.0 mm 0.00 in0.0 mm
07:30 AM 23.0°F-5.0°C 18.6°F-7.4°C 83% 0.3 mph WSW0.5 kmh WSW 1.6 mph2.6 kmh 30.51 in1033.2 mb 0.00 in0.0 mm 0.00 in0.0 mm 0.00 in0.0 mm
07:45 AM 22.6°F-5.2°C 18.6°F-7.4°C 84% Calm Calm 0.7 mph1.1 kmh 30.51 in1033.2 mb 0.00 in0.0 mm 0.00 in0.0 mm 0.00 in0.0 mm
08:00 AM 22.5°F-5.3°C 18.4°F-7.6°C 84% Calm Calm -- 30.52 in1033.5 mb 0.00 in0.0 mm 0.00 in0.0 mm 0.00 in0.0 mm
08:15 AM 22.5°F-5.3°C 18.4°F-7.6°C 84% 0.2 mph SSW0.3 kmh SSW 0.7 mph1.1 kmh 30.51 in1033.2 mb 0.00 in0.0 mm 0.00 in0.0 mm 0.00 in0.0 mm
08:30 AM 22.5°F-5.3°C 18.4°F-7.6°C 84% 0.2 mph S0.3 kmh S 0.7 mph1.1 kmh 30.52 in1033.5 mb 0.00 in0.0 mm 0.00 in0.0 mm 0.00 in0.0 mm
08:45 AM 22.5°F-5.3°C 18.4°F-7.6°C 84% 0.7 mph SW1.1 kmh SW 2.2 mph3.5 kmh 30.52 in1033.5 mb 0.00 in0.0 mm 0.00 in0.0 mm 0.00 in0.0 mm
09:00 AM 22.6°F-5.2°C 18.6°F-7.4°C 84% 0.2 mph WSW0.3 kmh WSW 0.7 mph1.1 kmh 30.53 in1033.9 mb 0.00 in0.0 mm 0.00 in0.0 mm 0.00 in0.0 mm
09:15 AM 23.4°F-4.8°C 19.0°F-7.2°C 83% 1.3 mph SSW2.1 kmh SSW 3.1 mph5.0 kmh 30.54 in1034.2 mb 0.00 in0.0 mm 0.00 in0.0 mm 0.00 in0.0 mm
09:30 AM 24.1°F-4.4°C 19.7°F-6.8°C 83% 0.6 mph SSW1.0 kmh SSW 3.1 mph5.0 kmh 30.54 in1034.2 mb 0.00 in0.0 mm 0.00 in0.0 mm 0.00 in0.0 mm
09:45 AM 24.1°F-4.4°C 19.7°F-6.8°C 83% 0.7 mph SW1.1 kmh SW 2.2 mph3.5 kmh 30.54 in1034.2 mb 0.00 in0.0 mm 0.00 in0.0 mm 0.00 in0.0 mm
10:00 AM 24.8°F-4.0°C 20.4°F-6.4°C 83% 1.0 mph SW1.6 kmh SW 1.6 mph2.6 kmh 30.54 in1034.2 mb 0.00 in0.0 mm 0.00 in0.0 mm 0.00 in0.0 mm
10:15 AM 29.1°F-1.6°C 25.8°F-3.4°C 87% 1.5 mph S2.4 kmh S 3.1 mph5.0 kmh 30.53 in1033.9 mb 0.00 in0.0 mm 0.00 in0.0 mm 0.00 in0.0 mm
10:30 AM 34.0°F1.1°C 30.0°F-1.1°C 85% 1.3 mph SSE2.1 kmh SSE 2.2 mph3.5 kmh 30.53 in1033.9 mb 0.00 in0.0 mm 0.00 in0.0 mm 0.00 in0.0 mm
10:45 AM 36.3°F2.4°C 30.1°F-1.1°C 78% 1.7 mph SSE2.7 kmh SSE 3.1 mph5.0 kmh 30.54 in1034.2 mb 0.00 in0.0 mm 0.00 in0.0 mm 0.00 in0.0 mm
11:00 AM 37.9°F3.3°C 28.3°F-2.1°C 68% 2.5 mph S4.0 kmh S 4.5 mph7.2 kmh 30.53 in1033.9 mb 0.00 in0.0 mm 0.00 in0.0 mm 0.00 in0.0 mm
11:15 AM 39.4°F4.1°C 29.0°F-1.7°C 66% 1.7 mph SE2.7 kmh SE 3.8 mph6.1 kmh 30.52 in1033.5 mb 0.00 in0.0 mm 0.00 in0.0 mm 0.00 in0.0 mm
11:30 AM 43.7°F6.5°C 31.5°F-0.3°C 62% 0.3 mph NW0.5 kmh NW 1.6 mph2.6 kmh 30.52 in1033.5 mb 0.00 in0.0 mm 0.00 in0.0 mm 0.00 in0.0 mm
11:45 AM 42.4°F5.8°C 29.6°F-1.3°C 60% 0.9 mph WSW1.4 kmh WSW 1.6 mph2.6 kmh 30.52 in1033.5 mb 0.00 in0.0 mm 0.00 in0.0 mm 0.00 in0.0 mm
12:00 PM 43.9°F6.6°C 30.1°F-1.1°C 58% 1.4 mph W2.3 kmh W 2.2 mph3.5 kmh 30.51 in1033.2 mb 0.00 in0.0 mm 0.00 in0.0 mm 0.00 in0.0 mm